Wila, Pennsylvania
Current Conditions -  °F | °C
As of 8:04 PM on Monday 26 Jan 2015 (Local Time) from KCXY Reporting Station
Light Snow Light Snow  
Wind Chill: -6°   Ceiling: 2500
Heat Index: -3°   Visibility: 2mi
Dew Point: -6°   Wind: 5mph
Humidity: 81%   Direction: 50°NE
Pressure: 29.8"   Gusts: NA
Location:  40.4932°N, 77.217°W
Report Text: KCXY 270104Z 05004KT 2SM -SN SCT016 OVC025 M03/M06 A2980 RMK AO2 P0000 T10331061
Loading
Personal Weather Stations






























Interactive Weather Map New forecast layout! Learn more

10-Day Weather Forecast

Advertisements
Track Severe Weather on mobile